createdAt,value
2023-04-21T00:02:27.938Z,10.03
2023-04-21T00:04:57.215Z,10.00
2023-04-21T00:07:25.672Z,9.96
2023-04-21T00:09:53.955Z,10.01
2023-04-21T00:12:22.261Z,9.93
2023-04-21T00:14:51.960Z,10.02
2023-04-21T00:17:20.896Z,10.01
2023-04-21T00:19:49.283Z,10.03
2023-04-21T00:22:18.408Z,10.06
2023-04-21T00:24:46.880Z,10.01
2023-04-21T00:27:16.209Z,10.08
2023-04-21T00:29:45.306Z,10.16
2023-04-21T00:32:15.023Z,10.17
2023-04-21T00:34:43.368Z,10.14
2023-04-21T00:37:11.627Z,10.05
2023-04-21T00:39:39.911Z,10.07
2023-04-21T00:42:18.430Z,10.04
2023-04-21T00:44:46.740Z,10.02
2023-04-21T00:47:16.458Z,10.01
2023-04-21T00:49:44.898Z,10.03
2023-04-21T00:52:13.778Z,10.11
2023-04-21T00:54:42.204Z,10.14
2023-04-21T00:57:12.176Z,10.19
2023-04-21T00:59:40.485Z,10.07
2023-04-21T01:02:08.923Z,9.97
2023-04-21T01:04:39.781Z,9.93
2023-04-21T01:07:10.243Z,9.90
2023-04-21T01:09:38.846Z,9.87
2023-04-21T01:12:08.876Z,9.86
2023-04-21T01:14:39.243Z,9.72
2023-04-21T01:17:08.317Z,9.78
2023-04-21T01:19:40.668Z,9.84
2023-04-21T01:22:12.397Z,9.84
2023-04-21T01:24:41.881Z,9.81
2023-04-21T01:27:12.116Z,9.82
2023-04-21T01:29:41.219Z,9.70
2023-04-21T01:32:11.930Z,9.61
2023-04-21T01:34:42.149Z,9.56
2023-04-21T01:37:13.160Z,9.53
2023-04-21T01:39:42.424Z,9.53
2023-04-21T01:42:11.122Z,9.46
2023-04-21T01:44:40.346Z,9.45
2023-04-21T01:47:08.951Z,9.36
2023-04-21T01:49:37.297Z,9.25
2023-04-21T01:52:06.048Z,9.25
2023-04-21T01:54:36.451Z,9.23
2023-04-21T01:57:05.695Z,9.25
2023-04-21T01:59:34.112Z,9.23
2023-04-21T02:02:02.428Z,9.18
2023-04-21T02:04:31.053Z,9.13
2023-04-21T02:06:59.522Z,9.12
2023-04-21T02:09:27.857Z,9.12
2023-04-21T02:11:58.496Z,9.03
2023-04-21T02:14:27.396Z,8.99
2023-04-21T02:16:56.294Z,8.99
2023-04-21T02:19:25.337Z,8.97
2023-04-21T02:21:53.619Z,9.06
2023-04-21T02:24:22.108Z,9.17
2023-04-21T02:26:50.850Z,9.20
2023-04-21T02:29:20.759Z,9.19
2023-04-21T02:32:00.819Z,9.22
2023-04-21T02:34:33.861Z,9.26
2023-04-21T02:37:02.610Z,9.26
2023-04-21T02:39:31.111Z,9.23
2023-04-21T02:41:59.792Z,9.16
2023-04-21T02:44:29.681Z,9.16
2023-04-21T02:46:57.994Z,9.07
2023-04-21T02:49:26.620Z,9.16
2023-04-21T02:51:55.343Z,9.12
2023-04-21T02:54:23.756Z,9.07
2023-04-21T02:56:52.053Z,9.04
2023-04-21T02:59:20.658Z,9.09
2023-04-21T03:01:50.661Z,9.12
2023-04-21T03:04:20.035Z,9.05
2023-04-21T03:06:48.550Z,9.00
2023-04-21T03:09:17.027Z,9.03
2023-04-21T03:11:45.380Z,8.99
2023-04-21T03:14:13.654Z,9.03
2023-04-21T03:16:42.069Z,9.01
2023-04-21T03:19:12.091Z,9.00
2023-04-21T03:21:40.380Z,8.95
2023-04-21T03:24:10.947Z,8.89
2023-04-21T03:26:40.723Z,8.91
2023-04-21T03:29:09.146Z,8.92
2023-04-21T03:31:37.510Z,8.90
2023-04-21T03:34:05.863Z,8.94
2023-04-21T03:36:35.722Z,9.04
2023-04-21T03:39:20.440Z,9.01
2023-04-21T03:41:49.906Z,9.04
2023-04-21T03:44:18.304Z,9.09
2023-04-21T03:46:46.541Z,9.02
2023-04-21T03:49:14.904Z,9.03
2023-04-21T03:51:44.696Z,9.03
2023-04-21T03:54:13.234Z,9.08
2023-04-21T03:56:41.506Z,9.18
2023-04-21T03:59:09.799Z,9.16
2023-04-21T04:01:38.137Z,9.23
2023-04-21T04:04:07.176Z,9.30
2023-04-21T04:06:35.919Z,9.28
2023-04-21T04:09:05.882Z,9.43
2023-04-21T04:11:34.196Z,9.51
2023-04-21T04:14:02.681Z,9.57
2023-04-21T04:16:31.210Z,9.69
2023-04-21T04:18:59.614Z,9.69
2023-04-21T04:21:28.704Z,9.79
2023-04-21T04:23:57.726Z,9.82
2023-04-21T04:26:27.803Z,9.86
2023-04-21T04:28:56.685Z,9.90
2023-04-21T04:31:25.858Z,10.01
2023-04-21T04:33:55.298Z,9.99
2023-04-21T04:36:24.239Z,9.79
2023-04-21T04:38:53.731Z,9.69
2023-04-21T04:41:22.841Z,9.67
2023-04-21T04:43:53.639Z,9.75
2023-04-21T04:46:22.105Z,9.87
2023-04-21T04:48:50.621Z,9.90
2023-04-21T04:51:18.966Z,9.97
2023-04-21T04:53:47.293Z,10.02
2023-04-21T04:56:15.681Z,10.08
2023-04-21T04:58:46.546Z,10.03
2023-04-21T05:01:17.272Z,10.13
2023-04-21T05:03:46.847Z,10.04
2023-04-21T05:06:15.390Z,10.10
2023-04-21T05:08:43.765Z,10.09
2023-04-21T05:11:12.254Z,10.15
2023-04-21T05:13:40.742Z,10.11
2023-04-21T05:16:11.508Z,10.19
2023-04-21T05:18:41.326Z,10.18
2023-04-21T05:21:09.778Z,10.21
2023-04-21T05:23:38.061Z,10.30
2023-04-21T05:26:06.516Z,10.28
2023-04-21T05:28:36.059Z,10.22
2023-04-21T05:31:04.567Z,10.20
2023-04-21T05:33:33.074Z,10.25
2023-04-21T05:36:02.983Z,10.23
2023-04-21T05:38:31.305Z,10.19
2023-04-21T05:40:59.775Z,10.11
2023-04-21T05:43:28.208Z,10.14
2023-04-21T05:45:56.487Z,10.19
2023-04-21T05:48:25.080Z,10.21
2023-04-21T05:50:53.428Z,10.22
2023-04-21T05:53:23.777Z,10.33
2023-04-21T05:55:52.112Z,10.35
2023-04-21T05:58:20.557Z,10.43
2023-04-21T06:00:49.240Z,10.51
2023-04-21T06:03:17.825Z,10.51
2023-04-21T06:05:47.489Z,10.49
2023-04-21T06:08:15.817Z,10.41
2023-04-21T06:10:45.514Z,10.24
2023-04-21T06:13:13.986Z,10.16
2023-04-21T06:15:42.444Z,10.04
2023-04-21T06:18:11.070Z,9.92
2023-04-21T06:20:40.963Z,9.86
2023-04-21T06:23:09.629Z,9.87
2023-04-21T06:25:38.069Z,9.85
2023-04-21T06:28:07.761Z,9.72
2023-04-21T06:30:36.082Z,9.45
2023-04-21T06:33:04.658Z,9.12
2023-04-21T06:35:33.136Z,9.15
2023-04-21T06:38:01.643Z,9.10
2023-04-21T06:40:29.937Z,9.02
2023-04-21T06:42:59.223Z,9.08
2023-04-21T06:45:28.998Z,8.99
2023-04-21T06:47:57.284Z,8.99
2023-04-21T06:50:25.640Z,9.06
2023-04-21T06:52:53.952Z,8.97
2023-04-21T06:55:22.166Z,8.91
2023-04-21T06:57:50.531Z,8.91
2023-04-21T07:00:20.217Z,8.86
2023-04-21T07:02:50.035Z,8.95
2023-04-21T07:05:18.559Z,8.90
2023-04-21T07:07:46.806Z,8.86
2023-04-21T07:10:19.370Z,8.88
2023-04-21T07:12:47.803Z,8.95
2023-04-21T07:15:16.083Z,8.95
2023-04-21T07:17:44.571Z,9.11
2023-04-21T07:20:14.629Z,9.04
2023-04-21T07:22:42.950Z,9.22
2023-04-21T07:25:12.665Z,9.23
2023-04-21T07:27:41.347Z,9.37
2023-04-21T07:30:10.764Z,9.54
2023-04-21T07:32:39.218Z,9.53
2023-04-21T07:35:08.478Z,9.38
2023-04-21T07:37:38.259Z,9.45
2023-04-21T07:40:07.641Z,9.60
2023-04-21T07:42:35.958Z,9.70
2023-04-21T07:45:04.295Z,9.78
2023-04-21T07:47:33.031Z,9.78
2023-04-21T07:50:01.408Z,9.91
2023-04-21T07:52:29.622Z,9.99
2023-04-21T07:54:59.250Z,10.06
2023-04-21T07:57:27.485Z,10.19
2023-04-21T07:59:55.849Z,10.20
2023-04-21T08:02:24.181Z,10.51
2023-04-21T08:04:52.480Z,10.77
2023-04-21T08:07:20.741Z,11.05
2023-04-21T08:09:48.932Z,11.06
2023-04-21T08:12:19.124Z,11.40
2023-04-21T08:14:47.443Z,11.52
2023-04-21T08:17:15.893Z,11.52
2023-04-21T08:19:44.181Z,11.46
2023-04-21T08:22:12.683Z,11.70
2023-04-21T08:24:40.997Z,11.69
2023-04-21T08:27:09.281Z,11.60
2023-04-21T08:29:38.977Z,11.74
2023-04-21T08:32:07.646Z,11.86
2023-04-21T08:34:36.090Z,11.78
2023-04-21T08:37:04.349Z,12.02
2023-04-21T08:39:32.656Z,12.12
2023-04-21T08:42:02.276Z,12.03
2023-04-21T08:44:30.574Z,12.07
2023-04-21T08:47:01.460Z,12.07
2023-04-21T08:49:31.428Z,12.31
2023-04-21T08:52:01.728Z,12.13
2023-04-21T08:54:30.310Z,12.42
2023-04-21T08:57:07.989Z,12.43
2023-04-21T08:59:42.786Z,12.90
2023-04-21T09:02:15.241Z,13.24
2023-04-21T09:04:45.383Z,13.37
2023-04-21T09:07:31.007Z,13.02
2023-04-21T09:10:00.479Z,13.24
2023-04-21T09:12:29.214Z,13.39
2023-04-21T09:14:59.131Z,13.37
2023-04-21T09:17:34.022Z,13.41
2023-04-21T09:20:16.170Z,13.38
2023-04-21T09:22:44.878Z,13.95
2023-04-21T09:25:17.590Z,13.79
2023-04-21T09:27:46.782Z,13.92
2023-04-21T09:30:19.876Z,13.67
2023-04-21T09:32:49.671Z,13.81
2023-04-21T09:35:18.026Z,14.24
2023-04-21T09:37:46.454Z,14.08
2023-04-21T09:40:16.214Z,14.03
2023-04-21T09:42:45.021Z,14.23
2023-04-21T09:47:52.600Z,14.19
2023-04-21T09:50:51.167Z,13.93
2023-04-21T09:53:15.404Z,13.81
2023-04-21T09:55:48.055Z,13.92
2023-04-21T09:58:20.256Z,13.80
2023-04-21T10:00:48.919Z,13.66
2023-04-21T10:03:21.040Z,13.73
2023-04-21T10:05:49.492Z,13.59
2023-04-21T10:08:18.978Z,13.32
2023-04-21T10:10:47.839Z,13.30
2023-04-21T10:13:18.806Z,13.30
2023-04-21T10:15:47.272Z,13.41
2023-04-21T10:18:20.163Z,13.46
2023-04-21T10:20:55.833Z,13.61
2023-04-21T10:23:37.493Z,13.68
2023-04-21T10:26:12.952Z,13.73
2023-04-21T10:28:46.116Z,13.48
2023-04-21T10:31:27.208Z,13.74
2023-04-21T10:34:15.990Z,14.22
2023-04-21T10:37:05.739Z,14.68
2023-04-21T10:39:36.702Z,14.74
2023-04-21T10:42:24.722Z,14.66
2023-04-21T10:44:54.789Z,14.63
2023-04-21T10:47:34.903Z,15.19
2023-04-21T10:50:15.017Z,15.49
2023-04-21T10:52:47.082Z,15.12
2023-04-21T10:55:16.243Z,15.01
2023-04-21T10:57:46.648Z,14.94
2023-04-21T11:00:20.096Z,14.60
2023-04-21T11:02:59.756Z,14.58
2023-04-21T11:05:38.907Z,14.56
2023-04-21T11:08:15.350Z,14.66
2023-04-21T11:10:55.015Z,14.74
2023-04-21T11:13:24.610Z,14.10
2023-04-21T11:16:04.558Z,14.04
2023-04-21T11:18:39.737Z,14.26
2023-04-21T11:21:18.310Z,14.24
2023-04-21T11:23:51.481Z,14.31
2023-04-21T11:26:21.122Z,14.49
2023-04-21T11:28:51.892Z,14.65
2023-04-21T11:31:20.365Z,14.68
2023-04-21T11:33:48.632Z,14.49
2023-04-21T11:36:18.329Z,14.65
2023-04-21T11:38:46.608Z,14.88
2023-04-21T11:41:23.710Z,14.86
2023-04-21T11:43:52.225Z,14.95
2023-04-21T11:46:25.921Z,14.54
2023-04-21T11:49:04.523Z,14.45
2023-04-21T11:51:39.058Z,14.27
2023-04-21T11:54:08.616Z,14.41
2023-04-21T11:56:38.434Z,14.51
2023-04-21T11:59:10.953Z,14.66
2023-04-21T12:01:44.801Z,14.71
2023-04-21T12:04:17.427Z,14.82
2023-04-21T12:06:48.159Z,14.72
2023-04-21T12:09:21.174Z,14.59
2023-04-21T12:11:51.221Z,14.67
2023-04-21T12:14:20.489Z,14.56
2023-04-21T12:16:50.542Z,14.30
2023-04-21T12:19:39.666Z,13.71
2023-04-21T12:22:10.946Z,13.48
2023-04-21T12:24:39.717Z,13.76
2023-04-21T12:27:08.729Z,13.68
2023-04-21T12:29:37.990Z,13.46
2023-04-21T12:32:06.623Z,13.62
2023-04-21T12:34:35.242Z,13.77
2023-04-21T12:37:04.193Z,13.74
2023-04-21T12:39:34.390Z,13.37
2023-04-21T12:42:02.966Z,13.47
2023-04-21T12:44:31.431Z,13.53
2023-04-21T12:46:59.763Z,13.56
2023-04-21T12:49:28.301Z,13.59
2023-04-21T12:51:56.893Z,13.42
2023-04-21T12:54:25.088Z,13.49
2023-04-21T12:56:55.456Z,13.40
2023-04-21T12:59:23.755Z,13.49
2023-04-21T13:01:52.346Z,13.61
2023-04-21T13:04:20.901Z,13.74
2023-04-21T13:06:49.398Z,13.60
2023-04-21T13:09:18.300Z,13.51
2023-04-21T13:11:46.936Z,13.50
2023-04-21T13:14:16.988Z,13.66
2023-04-21T13:16:45.588Z,13.64
2023-04-21T13:19:13.937Z,13.67
2023-04-21T13:21:42.474Z,13.69
2023-04-21T13:24:14.283Z,13.70
2023-04-21T13:26:43.121Z,13.63
2023-04-21T13:29:11.548Z,13.78
2023-04-21T13:31:41.534Z,13.88
2023-04-21T13:34:09.896Z,13.95
2023-04-21T13:36:38.209Z,13.88
2023-04-21T13:39:10.421Z,13.72
2023-04-21T13:41:39.998Z,13.81
2023-04-21T13:44:08.227Z,13.82
2023-04-21T13:46:36.549Z,13.60
2023-04-21T13:49:06.836Z,13.73
2023-04-21T13:51:35.776Z,13.80
2023-04-21T13:54:04.028Z,13.79
2023-04-21T13:56:32.482Z,13.69
2023-04-21T13:59:00.890Z,13.66
2023-04-21T14:01:30.417Z,13.62
2023-04-21T14:03:59.027Z,13.68
2023-04-21T14:06:28.766Z,13.70
2023-04-21T14:08:57.171Z,13.67
2023-04-21T14:11:25.528Z,13.82
2023-04-21T14:14:08.387Z,13.87
2023-04-21T14:16:37.847Z,13.78
2023-04-21T14:19:06.237Z,13.76
2023-04-21T14:21:36.049Z,13.86
2023-04-21T14:24:04.401Z,14.08
2023-04-21T14:26:32.927Z,14.04
2023-04-21T14:29:01.697Z,13.93
2023-04-21T14:31:30.083Z,13.84
2023-04-21T14:33:59.496Z,14.06
2023-04-21T14:36:28.129Z,14.03
2023-04-21T14:38:57.922Z,14.07
2023-04-21T14:41:26.258Z,14.06
2023-04-21T14:43:56.703Z,13.99
2023-04-21T14:46:25.307Z,13.88
2023-04-21T14:48:54.547Z,14.04
2023-04-21T14:51:22.889Z,13.99
2023-04-21T14:53:51.290Z,14.11
2023-04-21T14:56:21.263Z,14.18
2023-04-21T14:58:49.954Z,14.13
2023-04-21T15:01:18.495Z,14.07
2023-04-21T15:03:46.926Z,13.99
2023-04-21T15:06:16.255Z,14.14
2023-04-21T15:08:44.635Z,14.14
2023-04-21T15:11:13.178Z,14.15
2023-04-21T15:13:42.944Z,14.03
2023-04-21T15:16:11.209Z,13.97
2023-04-21T15:18:39.612Z,13.92
2023-04-21T15:21:07.884Z,13.99
2023-04-21T15:23:36.391Z,13.80
2023-04-21T15:26:04.949Z,13.77
2023-04-21T15:28:33.843Z,13.59
2023-04-21T15:31:03.858Z,13.58
2023-04-21T15:33:32.212Z,13.64
2023-04-21T15:36:00.478Z,13.48
2023-04-21T15:38:28.799Z,13.36
2023-04-21T15:41:01.109Z,13.49
2023-04-21T15:43:30.492Z,13.49
2023-04-21T15:45:58.842Z,13.50
2023-04-21T15:48:28.622Z,13.55
2023-04-21T15:50:57.917Z,13.62
2023-04-21T15:53:26.310Z,13.36
2023-04-21T15:55:54.546Z,13.40
2023-04-21T15:58:22.840Z,13.37
2023-04-21T16:00:51.222Z,13.42
2023-04-21T16:03:19.899Z,13.38
2023-04-21T16:05:49.823Z,13.22
2023-04-21T16:08:18.114Z,13.20
2023-04-21T16:10:46.865Z,13.11
2023-04-21T16:13:15.259Z,13.13
2023-04-21T16:15:43.578Z,13.03
2023-04-21T16:18:12.030Z,13.07
2023-04-21T16:20:41.192Z,12.91
2023-04-21T16:23:10.950Z,12.82
2023-04-21T16:25:39.327Z,12.73
2023-04-21T16:28:09.249Z,12.75
2023-04-21T16:30:38.635Z,12.64
2023-04-21T16:33:07.160Z,12.56
2023-04-21T16:35:35.764Z,12.51
2023-04-21T16:38:04.407Z,12.50
2023-04-21T16:40:34.777Z,12.38
2023-04-21T16:43:03.131Z,12.29
2023-04-21T16:45:31.454Z,12.17
2023-04-21T16:47:59.893Z,12.17
2023-04-21T16:50:28.459Z,12.05
2023-04-21T16:52:56.721Z,11.91
2023-04-21T16:55:25.125Z,11.92
2023-04-21T16:57:54.899Z,11.80
2023-04-21T17:00:23.098Z,11.69
2023-04-21T17:02:51.567Z,11.58
2023-04-21T17:05:20.037Z,11.48
2023-04-21T17:07:48.426Z,11.44
2023-04-21T17:10:16.712Z,11.40
2023-04-21T17:12:45.015Z,11.25
2023-04-21T17:15:14.735Z,11.12
2023-04-21T17:17:44.892Z,11.03
2023-04-21T17:20:14.796Z,10.94
2023-04-21T17:22:43.768Z,10.82
2023-04-21T17:25:12.750Z,10.79
2023-04-21T17:27:41.823Z,10.65
2023-04-21T17:30:11.389Z,10.53
2023-04-21T17:32:41.698Z,10.55
2023-04-21T17:35:10.525Z,10.49
2023-04-21T17:37:38.860Z,10.42
2023-04-21T17:40:09.746Z,10.45
2023-04-21T17:42:38.044Z,10.48
2023-04-21T17:45:08.552Z,10.35
2023-04-21T17:47:37.961Z,10.29
2023-04-21T17:50:09.969Z,10.20
2023-04-21T17:52:38.605Z,10.15
2023-04-21T17:55:07.778Z,10.13
2023-04-21T17:57:36.300Z,10.12
2023-04-21T18:00:08.214Z,10.15
2023-04-21T18:02:36.719Z,10.16
2023-04-21T18:05:06.712Z,10.21
2023-04-21T18:07:36.493Z,10.26
2023-04-21T18:10:05.387Z,10.32
2023-04-21T18:12:33.658Z,10.36
2023-04-21T18:15:02.263Z,10.25
2023-04-21T18:17:30.680Z,10.12
2023-04-21T18:20:00.603Z,10.03
2023-04-21T18:22:28.937Z,10.03
2023-04-21T18:24:58.733Z,10.03
2023-04-21T18:27:27.043Z,10.15
2023-04-21T18:29:55.481Z,10.18
2023-04-21T18:32:24.414Z,10.21
2023-04-21T18:34:52.674Z,10.28
2023-04-21T18:37:21.015Z,10.31
2023-04-21T18:39:49.435Z,10.33
2023-04-21T18:42:19.267Z,10.29
2023-04-21T18:44:48.005Z,10.42
2023-04-21T18:47:16.708Z,10.46
2023-04-21T18:49:45.407Z,10.35
2023-04-21T18:52:14.429Z,10.26
2023-04-21T18:54:42.694Z,10.17
2023-04-21T18:57:11.080Z,10.06
2023-04-21T18:59:40.728Z,10.05
2023-04-21T19:02:11.131Z,10.06
2023-04-21T19:04:40.127Z,10.13
2023-04-21T19:07:10.157Z,10.15
2023-04-21T19:09:38.686Z,10.15
2023-04-21T19:12:07.221Z,10.16
2023-04-21T19:14:46.145Z,10.13
2023-04-21T19:17:16.866Z,10.11
2023-04-21T19:19:45.160Z,10.09
2023-04-21T19:22:13.393Z,10.09
2023-04-21T19:24:41.639Z,10.04
2023-04-21T19:27:09.866Z,10.00
2023-04-21T19:29:38.139Z,9.83
2023-04-21T19:32:07.141Z,9.88
2023-04-21T19:34:37.099Z,9.85
2023-04-21T19:37:05.755Z,9.87
2023-04-21T19:39:34.195Z,9.87
2023-04-21T19:42:02.658Z,9.88
2023-04-21T19:44:31.355Z,9.92
2023-04-21T19:46:59.745Z,9.93
2023-04-21T19:49:28.073Z,9.98
2023-04-21T19:51:57.715Z,10.01
2023-04-21T19:54:27.005Z,10.02
2023-04-21T19:56:55.319Z,9.99
2023-04-21T19:59:23.608Z,10.04
2023-04-21T20:01:51.962Z,9.93
2023-04-21T20:04:20.513Z,9.93
2023-04-21T20:06:48.827Z,9.96
2023-04-21T20:09:18.597Z,9.98
2023-04-21T20:11:46.980Z,10.03
2023-04-21T20:14:15.216Z,10.01
2023-04-21T20:16:46.116Z,10.01
2023-04-21T20:19:15.246Z,9.98
2023-04-21T20:21:43.952Z,10.01
2023-04-21T20:24:12.300Z,10.04
2023-04-21T20:26:42.377Z,10.00
2023-04-21T20:29:10.962Z,10.00
2023-04-21T20:31:39.592Z,9.97
2023-04-21T20:34:08.477Z,9.92
2023-04-21T20:36:37.544Z,9.95
2023-04-21T20:39:06.583Z,9.87
2023-04-21T20:41:34.893Z,9.88
2023-04-21T20:44:05.574Z,9.76
2023-04-21T20:46:34.143Z,9.69
2023-04-21T20:49:02.444Z,9.71
2023-04-21T20:51:30.723Z,9.70
2023-04-21T20:53:59.043Z,9.79
2023-04-21T20:56:27.696Z,9.82
2023-04-21T20:58:56.053Z,9.88
2023-04-21T21:01:27.075Z,9.84
2023-04-21T21:03:57.386Z,9.80
2023-04-21T21:06:25.834Z,9.72
2023-04-21T21:08:55.357Z,9.71
2023-04-21T21:11:23.574Z,9.67
2023-04-21T21:13:52.419Z,9.76
2023-04-21T21:16:20.893Z,9.69
2023-04-21T21:18:51.053Z,9.62
2023-04-21T21:21:19.251Z,9.58
2023-04-21T21:23:47.541Z,9.63
2023-04-21T21:26:16.356Z,9.62
2023-04-21T21:28:44.706Z,9.57
2023-04-21T21:31:15.914Z,9.47
2023-04-21T21:33:44.165Z,9.56
2023-04-21T21:36:14.031Z,9.68
2023-04-21T21:38:42.562Z,9.82
2023-04-21T21:41:12.362Z,9.79
2023-04-21T21:43:40.775Z,9.82
2023-04-21T21:46:09.778Z,9.85
2023-04-21T21:48:38.020Z,9.87
2023-04-21T21:51:06.380Z,9.88
2023-04-21T21:53:36.070Z,9.89
2023-04-21T21:56:04.469Z,9.87
2023-04-21T21:58:32.821Z,9.93
2023-04-21T22:01:01.173Z,9.79
2023-04-21T22:03:29.792Z,9.66
2023-04-21T22:05:58.426Z,9.47
2023-04-21T22:08:26.905Z,9.52
2023-04-21T22:10:57.225Z,9.53
2023-04-21T22:13:25.499Z,9.56
2023-04-21T22:15:53.845Z,9.60
2023-04-21T22:18:22.100Z,9.65
2023-04-21T22:20:50.380Z,9.70
2023-04-21T22:23:20.444Z,9.66
2023-04-21T22:25:48.731Z,9.63
2023-04-21T22:28:18.540Z,9.57
2023-04-21T22:30:46.864Z,9.61
2023-04-21T22:33:15.187Z,9.61
2023-04-21T22:35:43.425Z,9.70
2023-04-21T22:38:11.730Z,9.83
2023-04-21T22:40:40.154Z,9.87
2023-04-21T22:43:08.530Z,9.88
2023-04-21T22:45:38.323Z,9.80
2023-04-21T22:48:07.875Z,9.74
2023-04-21T22:50:36.313Z,9.80
2023-04-21T22:53:05.211Z,9.81
2023-04-21T22:55:33.645Z,9.80
2023-04-21T22:58:01.949Z,9.75
2023-04-21T23:00:30.331Z,9.67
2023-04-21T23:03:00.363Z,9.78
2023-04-21T23:05:28.828Z,9.82
2023-04-21T23:07:57.025Z,9.87
2023-04-21T23:10:25.429Z,9.94
2023-04-21T23:12:53.705Z,9.99
2023-04-21T23:15:22.342Z,10.04
2023-04-21T23:17:50.648Z,10.08
2023-04-21T23:20:20.883Z,10.10
2023-04-21T23:22:49.171Z,10.12
2023-04-21T23:25:17.511Z,10.15
2023-04-21T23:27:45.757Z,10.19
2023-04-21T23:30:14.623Z,10.29
2023-04-21T23:32:43.822Z,10.27
2023-04-21T23:35:12.232Z,10.23
2023-04-21T23:37:41.861Z,10.26
2023-04-21T23:40:12.671Z,10.24
2023-04-21T23:42:41.129Z,10.31
2023-04-21T23:45:10.528Z,10.33
2023-04-21T23:47:38.826Z,10.36
2023-04-21T23:50:08.446Z,10.36
2023-04-21T23:52:36.853Z,10.33
2023-04-21T23:55:08.368Z,10.42
2023-04-21T23:57:37.166Z,10.45
